Pella, Idaho
Current Conditions -  °F | °C
As of 2:19 PM on Sunday 21 Dec 2014 (Local Time) from KBYI Reporting Station
Light Rain Light Rain  
Wind Chill: 39°   Ceiling: 4800
Heat Index: 47°   Visibility: 10mi
Dew Point: 42°   Wind: 25mph
Humidity: 83%   Direction: 290°WNW
Pressure: 29.87"   Gusts: 37mph
Location:  42.5011°N, 113.814°W
Report Text: KBYI 212119Z AUTO 29022G32KT 10SM -RA FEW018 BKN048 OVC060 08/06 A2987 RMK AO2 PK WND 29032/2114 P0001 T00830056
Loading
Personal Weather Stations






























Interactive Weather Map New forecast layout! Learn more

10-Day Weather Forecast

Advertisements
Track Severe Weather on mobile